Weather reports worldwide

Advertisment
Menorca Airport, Spain (2008314): temperature & dewpoint: 16.06.2018 15:00:00 - 22.06.2018 15:00:00 (CEST)Menorca Airport, Spain (2008314): wind speed: 16.06.2018 15:00:00 - 22.06.2018 15:00:00 (CEST)Menorca Airport, Spain (2008314): wind direction: 16.06.2018 15:00:00 - 22.06.2018 15:00:00 (CEST)Menorca Airport, Spain (2008314): visibility: 16.06.2018 15:00:00 - 22.06.2018 15:00:00 (CEST)
Date & Time tt [°C] td [°C] ff [km/h] ff [kn] dd vv [km]
22.06.2018 15:00:00 28,0 18,0 18 10 NNE 10
22.06.2018 14:00:00 29,0 17,0 18 10 NNE 10
22.06.2018 13:00:00 28,0 18,0 21 11 NNE 10
22.06.2018 12:00:00 28,0 17,0 24 13 NNE 10
22.06.2018 11:00:00 28,0 18,0 22 12 N 10
22.06.2018 10:00:00 27,0 17,0 18 10 N 10
22.06.2018 09:00:00 25,0 18,0 11 6 WNW 10
22.06.2018 08:00:00 22,0 19,0 8 4 W 10
22.06.2018 07:00:00 20,0 16,0 8 4 WNW 10
22.06.2018 06:00:00 19,0 18,0 5 3 NW 10
22.06.2018 05:00:00 19,0 18,0 8 4 WNW 10
22.06.2018 04:00:00 19,0 18,0 8 4 WNW 10
22.06.2018 03:00:00 19,0 18,0 4 2 WNW 10
22.06.2018 02:00:00 19,0 17,0 4 2 W 10
22.06.2018 01:00:00 19,0 16,0 2 1 W 10
22.06.2018 00:00:00 20,0 17,0 2 1 SW 10
21.06.2018 23:00:00 20,0 17,0 0 0 N 10
21.06.2018 22:00:00 22,0 18,0 4 2 - 10
21.06.2018 21:00:00 24,0 16,0 5 3 E 10
21.06.2018 20:00:00 25,0 17,0 9 5 E 10
21.06.2018 19:00:00 26,0 16,0 13 7 ENE 10
21.06.2018 18:00:00 27,0 16,0 13 7 NE 10
21.06.2018 17:00:00 28,0 17,0 16 9 ENE 10
21.06.2018 16:00:00 27,0 18,0 4 2 - 10
21.06.2018 15:00:00 28,0 18,0 2 1 - 10
21.06.2018 14:00:00 27,0 17,0 5 3 - 10
21.06.2018 13:00:00 27,0 17,0 8 4 - 10
21.06.2018 12:00:00 28,0 15,0 11 6 NNE 10
21.06.2018 11:00:00 26,0 14,0 9 5 NE 10
21.06.2018 10:00:00 26,0 15,0 11 6 NNE 10
21.06.2018 09:00:00 24,0 17,0 8 4 NE 10
21.06.2018 08:00:00 22,0 19,0 9 5 NNE 10
21.06.2018 07:00:00 19,0 19,0 11 6 N 10
21.06.2018 06:00:00 18,0 17,0 5 3 N 10
21.06.2018 05:00:00 18,0 17,0 4 2 - 10
21.06.2018 04:00:00 19,0 17,0 8 4 NNE 10
21.06.2018 03:00:00 20,0 18,0 8 4 NE 10
21.06.2018 02:00:00 19,0 16,0 5 3 N 10
21.06.2018 01:00:00 20,0 15,0 5 3 NNE 10
21.06.2018 00:00:00 20,0 15,0 5 3 N 10
20.06.2018 23:00:00 20,0 14,0 2 1 WNW 10
20.06.2018 22:00:00 22,0 15,0 4 2 NNE 10
20.06.2018 21:00:00 24,0 12,0 11 6 NE 10
20.06.2018 20:00:00 26,0 14,0 11 6 NE 10
20.06.2018 19:00:00 26,0 15,0 13 7 NE 10
20.06.2018 18:00:00 27,0 15,0 15 8 ENE 10
20.06.2018 17:00:00 27,0 17,0 9 5 WSW 10
20.06.2018 16:00:00 27,0 17,0 13 7 WSW 10
20.06.2018 15:00:00 27,0 18,0 8 4 - 10
20.06.2018 14:00:00 28,0 15,0 9 5 ENE 10
20.06.2018 13:00:00 28,0 15,0 9 5 NE 10
20.06.2018 12:00:00 28,0 15,0 11 6 ENE 10
20.06.2018 11:00:00 26,0 15,0 11 6 ENE 10
20.06.2018 10:00:00 25,0 15,0 16 9 NNE 10
20.06.2018 09:00:00 24,0 16,0 15 8 N 10
20.06.2018 08:00:00 21,0 18,0 8 4 N 10
20.06.2018 07:00:00 19,0 18,0 5 3 N 10
20.06.2018 06:00:00 19,0 18,0 0 0 N 10
20.06.2018 05:00:00 20,0 18,0 15 8 NNE 10
20.06.2018 04:00:00 20,0 18,0 15 8 N 10
20.06.2018 03:00:00 20,0 18,0 9 5 N 10
20.06.2018 02:00:00 20,0 17,0 16 9 NNE 10
20.06.2018 01:00:00 19,0 16,0 11 6 N 10
20.06.2018 00:00:00 19,0 16,0 4 2 - 10
19.06.2018 23:00:00 19,0 16,0 8 4 N 10
19.06.2018 22:00:00 20,0 15,0 9 5 N 10
19.06.2018 21:00:00 22,0 15,0 16 9 N 10
19.06.2018 20:00:00 23,0 15,0 26 14 N 10
19.06.2018 19:00:00 24,0 14,0 24 13 N 10
19.06.2018 18:00:00 25,0 14,0 29 16 NNE 10
19.06.2018 17:00:00 25,0 14,0 34 18 NNE 10
19.06.2018 16:00:00 25,0 14,0 31 17 N 10
19.06.2018 15:00:00 26,0 15,0 34 18 NNE 10
19.06.2018 14:00:00 25,0 15,0 34 18 N 10
19.06.2018 13:00:00 24,0 15,0 37 20 N 10
19.06.2018 12:00:00 24,0 15,0 48 26 NNE 10
19.06.2018 11:00:00 24,0 15,0 46 25 NNE 10
19.06.2018 10:00:00 23,0 15,0 48 26 NNE 10
19.06.2018 09:00:00 22,0 16,0 41 22 NNE 10
19.06.2018 08:00:00 21,0 16,0 37 20 NNE 10
19.06.2018 07:00:00 20,0 16,0 28 15 NNE 10
19.06.2018 06:00:00 20,0 16,0 29 16 NNE 10
19.06.2018 05:00:00 20,0 16,0 29 16 NNE 10
19.06.2018 04:00:00 21,0 16,0 34 18 N 10
19.06.2018 03:00:00 21,0 16,0 31 17 N 10
19.06.2018 02:00:00 21,0 15,0 35 19 N 10
19.06.2018 01:00:00 21,0 16,0 28 15 N 10
19.06.2018 00:00:00 21,0 15,0 24 13 N 10
18.06.2018 23:00:00 21,0 16,0 15 8 NNW 10
18.06.2018 22:00:00 21,0 16,0 21 11 N 10
18.06.2018 21:00:00 21,0 16,0 13 7 N 10
18.06.2018 20:00:00 23,0 15,0 22 12 N 10
18.06.2018 19:00:00 24,0 14,0 26 14 N 10
18.06.2018 18:00:00 24,0 15,0 21 11 N 10
18.06.2018 17:00:00 24,0 17,0 18 10 N 10
18.06.2018 16:00:00 25,0 17,0 18 10 N 10
18.06.2018 15:00:00 26,0 18,0 15 8 - 10
18.06.2018 14:00:00 25,0 17,0 21 11 W 10
18.06.2018 13:00:00 24,0 17,0 24 13 W 10
18.06.2018 12:00:00 24,0 16,0 22 12 W 10
18.06.2018 11:00:00 23,0 15,0 11 6 NW 10
18.06.2018 10:00:00 22,0 15,0 21 11 N 10
18.06.2018 09:00:00 22,0 15,0 21 11 N 10
18.06.2018 08:00:00 21,0 16,0 2 1 - 10
18.06.2018 07:00:00 19,0 15,0 4 2 - 10
18.06.2018 06:00:00 18,0 15,0 4 2 NNW 10
18.06.2018 05:00:00 19,0 14,0 13 7 N 10
18.06.2018 04:00:00 18,0 14,0 9 5 N 10
18.06.2018 03:00:00 19,0 16,0 9 5 N 10
18.06.2018 02:00:00 18,0 16,0 9 5 N 10
18.06.2018 01:00:00 20,0 16,0 13 7 NNE 10
18.06.2018 00:00:00 19,0 17,0 11 6 N 10
17.06.2018 23:00:00 19,0 16,0 8 4 N 10
17.06.2018 22:00:00 20,0 16,0 4 2 - 10
17.06.2018 21:00:00 21,0 16,0 5 3 NE 10
17.06.2018 20:00:00 21,0 15,0 8 4 NNE 10
17.06.2018 19:00:00 24,0 16,0 4 2 - 10
17.06.2018 18:00:00 24,0 15,0 9 5 - 10
17.06.2018 17:00:00 24,0 15,0 9 5 NE 10
17.06.2018 16:00:00 24,0 15,0 18 10 NE 10
17.06.2018 15:00:00 25,0 14,0 21 11 N 10
17.06.2018 14:00:00 24,0 14,0 22 12 N 10
17.06.2018 13:00:00 24,0 15,0 29 16 NNE 10
17.06.2018 12:00:00 24,0 14,0 28 15 N 10
17.06.2018 11:00:00 23,0 15,0 22 12 N 10
17.06.2018 10:00:00 23,0 17,0 11 6 NNE 10
17.06.2018 09:00:00 22,0 18,0 8 4 N 10
17.06.2018 08:00:00 21,0 19,0 11 6 NNE 10
17.06.2018 07:00:00 19,0 18,0 9 5 NNE 10
17.06.2018 06:00:00 17,0 16,0 8 4 N 10
17.06.2018 05:00:00 18,0 16,0 9 5 NNW 10
17.06.2018 04:00:00 18,0 17,0 4 2 NW 10
17.06.2018 03:00:00 18,0 17,0 4 2 - 10
17.06.2018 02:00:00 18,0 16,0 4 2 NNW 10
17.06.2018 01:00:00 19,0 17,0 2 1 NNW 10
17.06.2018 00:00:00 19,0 17,0 4 2 NW 10
16.06.2018 23:00:00 20,0 17,0 4 2 NW 10
16.06.2018 22:00:00 20,0 17,0 4 2 W 10
16.06.2018 21:00:00 22,0 17,0 8 4 W 10
16.06.2018 20:00:00 23,0 17,0 15 8 W 10
16.06.2018 19:00:00 24,0 17,0 13 7 W 10
16.06.2018 18:00:00 24,0 18,0 16 9 WSW 10
16.06.2018 17:00:00 24,0 17,0 18 10 WSW 10
16.06.2018 16:00:00 24,0 16,0 16 9 SW 10
16.06.2018 15:00:00 24,0 16,0 16 9 WSW 10

tt = temperature
td = dewpoint
ff = wind speed
dd = wind direction
vv = visibility

Next stations